Medicine Lake Lodge, California
Current Conditions -  °F | °C
As of 4:53 AM on Friday 31 Oct 2014 (Local Time) from KLMT Reporting Station
Light Rain Light Rain  
Wind Chill: 50°   Ceiling: 6500
Heat Index: 50°   Visibility: 10mi
Dew Point: 39°   Wind: 17mph
Humidity: 66%   Direction: 150°SSE
Pressure: 29.79"   Gusts: NA
Location:  41.7207°N, 121.463°W
Report Text: KLMT 311153Z AUTO 15015KT 10SM -RA OVC065 10/04 A2979 RMK AO2 RAB53 SLP061 P0000 60000 T01000039 10128 20100 58011
Loading
Personal Weather Stations






























Interactive Weather Map
Tropical Storm Tracking
New forecast layout! Learn more

10-Day Weather Forecast

Advertisements
Track Severe Weather on mobile